sensor_id;sensor_type;location;lat;lon;timestamp;P1;durP1;ratioP1;P2;durP2;ratioP2
29214;SDS011;16252;49.816;7.964;2022-07-03T00:01:45;0.85;;;0.80;;
29214;SDS011;16252;49.816;7.964;2022-07-03T00:04:11;0.80;;;0.80;;
29214;SDS011;16252;49.816;7.964;2022-07-03T00:06:36;0.90;;;0.80;;
29214;SDS011;16252;49.816;7.964;2022-07-03T00:09:05;1.92;;;0.80;;
29214;SDS011;16252;49.816;7.964;2022-07-03T00:11:31;1.85;;;0.98;;
29214;SDS011;16252;49.816;7.964;2022-07-03T00:13:57;1.20;;;1.05;;
29214;SDS011;16252;49.816;7.964;2022-07-03T00:16:23;0.70;;;0.70;;
29214;SDS011;16252;49.816;7.964;2022-07-03T00:18:48;1.90;;;1.50;;
29214;SDS011;16252;49.816;7.964;2022-07-03T00:21:17;1.52;;;0.90;;
29214;SDS011;16252;49.816;7.964;2022-07-03T00:23:47;1.58;;;1.10;;
29214;SDS011;16252;49.816;7.964;2022-07-03T00:26:19;1.00;;;0.93;;
29214;SDS011;16252;49.816;7.964;2022-07-03T00:28:46;1.92;;;1.13;;
29214;SDS011;16252;49.816;7.964;2022-07-03T00:31:12;1.13;;;0.93;;
29214;SDS011;16252;49.816;7.964;2022-07-03T00:33:38;0.80;;;0.80;;
29214;SDS011;16252;49.816;7.964;2022-07-03T00:36:04;2.75;;;0.90;;
29214;SDS011;16252;49.816;7.964;2022-07-03T00:38:30;0.80;;;0.70;;
29214;SDS011;16252;49.816;7.964;2022-07-03T00:40:56;2.22;;;0.80;;
29214;SDS011;16252;49.816;7.964;2022-07-03T00:43:21;1.42;;;0.95;;
29214;SDS011;16252;49.816;7.964;2022-07-03T00:45:49;0.65;;;0.65;;
29214;SDS011;16252;49.816;7.964;2022-07-03T00:48:16;0.70;;;0.70;;
29214;SDS011;16252;49.816;7.964;2022-07-03T00:50:50;1.27;;;0.65;;
29214;SDS011;16252;49.816;7.964;2022-07-03T00:53:26;1.25;;;0.85;;
29214;SDS011;16252;49.816;7.964;2022-07-03T00:55:54;0.68;;;0.68;;
29214;SDS011;16252;49.816;7.964;2022-07-03T00:58:20;1.77;;;0.80;;
29214;SDS011;16252;49.816;7.964;2022-07-03T01:00:45;1.40;;;1.10;;
29214;SDS011;16252;49.816;7.964;2022-07-03T01:03:14;0.90;;;0.80;;
29214;SDS011;16252;49.816;7.964;2022-07-03T01:05:45;0.55;;;0.52;;
29214;SDS011;16252;49.816;7.964;2022-07-03T01:08:34;1.75;;;0.75;;
29214;SDS011;16252;49.816;7.964;2022-07-03T01:11:25;1.60;;;0.75;;
29214;SDS011;16252;49.816;7.964;2022-07-03T01:14:00;0.88;;;0.70;;
29214;SDS011;16252;49.816;7.964;2022-07-03T01:16:51;1.45;;;0.98;;
29214;SDS011;16252;49.816;7.964;2022-07-03T01:27:34;0.80;;;0.80;;
29214;SDS011;16252;49.816;7.964;2022-07-03T01:30:08;0.73;;;0.68;;
29214;SDS011;16252;49.816;7.964;2022-07-03T01:32:41;1.75;;;0.85;;
29214;SDS011;16252;49.816;7.964;2022-07-03T01:35:07;1.23;;;0.80;;
29214;SDS011;16252;49.816;7.964;2022-07-03T01:37:34;0.75;;;0.65;;
29214;SDS011;16252;49.816;7.964;2022-07-03T01:40:01;1.00;;;0.80;;
29214;SDS011;16252;49.816;7.964;2022-07-03T01:42:29;1.02;;;0.88;;
29214;SDS011;16252;49.816;7.964;2022-07-03T01:44:58;0.73;;;0.60;;
29214;SDS011;16252;49.816;7.964;2022-07-03T01:47:24;0.75;;;0.70;;
29214;SDS011;16252;49.816;7.964;2022-07-03T01:49:50;1.00;;;0.90;;
29214;SDS011;16252;49.816;7.964;2022-07-03T01:52:17;0.88;;;0.88;;
29214;SDS011;16252;49.816;7.964;2022-07-03T01:54:45;0.80;;;0.70;;
29214;SDS011;16252;49.816;7.964;2022-07-03T01:57:12;0.70;;;0.70;;
29214;SDS011;16252;49.816;7.964;2022-07-03T01:59:38;1.40;;;0.90;;
29214;SDS011;16252;49.816;7.964;2022-07-03T02:02:14;1.05;;;0.90;;
29214;SDS011;16252;49.816;7.964;2022-07-03T02:07:49;1.08;;;0.93;;
29214;SDS011;16252;49.816;7.964;2022-07-03T02:10:20;1.30;;;0.80;;
29214;SDS011;16252;49.816;7.964;2022-07-03T02:12:57;1.23;;;0.80;;
29214;SDS011;16252;49.816;7.964;2022-07-03T02:15:30;0.70;;;0.68;;
29214;SDS011;16252;49.816;7.964;2022-07-03T02:17:57;1.00;;;0.90;;
29214;SDS011;16252;49.816;7.964;2022-07-03T02:20:25;2.35;;;0.68;;
29214;SDS011;16252;49.816;7.964;2022-07-03T02:22:57;1.55;;;0.85;;
29214;SDS011;16252;49.816;7.964;2022-07-03T02:25:35;1.00;;;0.90;;
29214;SDS011;16252;49.816;7.964;2022-07-03T02:28:20;0.70;;;0.70;;
29214;SDS011;16252;49.816;7.964;2022-07-03T02:30:55;1.13;;;0.88;;
29214;SDS011;16252;49.816;7.964;2022-07-03T02:33:27;0.93;;;0.63;;
29214;SDS011;16252;49.816;7.964;2022-07-03T02:35:57;1.05;;;0.88;;
29214;SDS011;16252;49.816;7.964;2022-07-03T02:38:23;0.80;;;0.80;;
29214;SDS011;16252;49.816;7.964;2022-07-03T02:40:57;0.60;;;0.60;;
29214;SDS011;16252;49.816;7.964;2022-07-03T02:43:41;0.68;;;0.68;;
29214;SDS011;16252;49.816;7.964;2022-07-03T02:46:18;1.40;;;0.70;;
29214;SDS011;16252;49.816;7.964;2022-07-03T02:54:59;1.00;;;0.70;;
29214;SDS011;16252;49.816;7.964;2022-07-03T02:57:37;2.05;;;0.73;;
29214;SDS011;16252;49.816;7.964;2022-07-03T03:00:05;0.73;;;0.73;;
29214;SDS011;16252;49.816;7.964;2022-07-03T03:02:53;0.80;;;0.80;;
29214;SDS011;16252;49.816;7.964;2022-07-03T03:10:52;1.30;;;0.68;;
29214;SDS011;16252;49.816;7.964;2022-07-03T03:13:24;1.98;;;0.80;;
29214;SDS011;16252;49.816;7.964;2022-07-03T03:16:04;1.15;;;0.80;;
29214;SDS011;16252;49.816;7.964;2022-07-03T03:18:37;3.22;;;0.80;;
29214;SDS011;16252;49.816;7.964;2022-07-03T03:21:05;0.93;;;0.73;;
29214;SDS011;16252;49.816;7.964;2022-07-03T03:26:07;1.05;;;0.98;;
29214;SDS011;16252;49.816;7.964;2022-07-03T03:28:33;1.38;;;1.13;;
29214;SDS011;16252;49.816;7.964;2022-07-03T03:30:58;1.20;;;1.05;;
29214;SDS011;16252;49.816;7.964;2022-07-03T03:33:24;0.82;;;0.70;;
29214;SDS011;16252;49.816;7.964;2022-07-03T03:35:49;1.58;;;0.70;;
29214;SDS011;16252;49.816;7.964;2022-07-03T03:38:15;1.23;;;0.70;;
29214;SDS011;16252;49.816;7.964;2022-07-03T03:40:41;1.20;;;0.90;;
29214;SDS011;16252;49.816;7.964;2022-07-03T03:43:08;1.20;;;0.80;;
29214;SDS011;16252;49.816;7.964;2022-07-03T03:45:33;1.60;;;0.80;;
29214;SDS011;16252;49.816;7.964;2022-07-03T03:47:59;1.17;;;0.73;;
29214;SDS011;16252;49.816;7.964;2022-07-03T03:50:24;1.50;;;0.80;;
29214;SDS011;16252;49.816;7.964;2022-07-03T03:52:49;0.80;;;0.80;;
29214;SDS011;16252;49.816;7.964;2022-07-03T03:55:15;2.63;;;0.77;;
29214;SDS011;16252;49.816;7.964;2022-07-03T03:57:40;1.05;;;0.95;;
29214;SDS011;16252;49.816;7.964;2022-07-03T04:00:06;0.95;;;0.73;;
29214;SDS011;16252;49.816;7.964;2022-07-03T04:02:32;0.80;;;0.80;;
29214;SDS011;16252;49.816;7.964;2022-07-03T04:04:57;0.95;;;0.82;;
29214;SDS011;16252;49.816;7.964;2022-07-03T04:07:22;1.40;;;0.70;;
29214;SDS011;16252;49.816;7.964;2022-07-03T04:09:48;1.23;;;1.13;;
29214;SDS011;16252;49.816;7.964;2022-07-03T04:12:14;0.60;;;0.60;;
29214;SDS011;16252;49.816;7.964;2022-07-03T04:14:39;1.30;;;1.00;;
29214;SDS011;16252;49.816;7.964;2022-07-03T04:17:04;3.35;;;1.50;;
29214;SDS011;16252;49.816;7.964;2022-07-03T04:19:30;2.25;;;1.60;;
29214;SDS011;16252;49.816;7.964;2022-07-03T04:21:55;2.17;;;1.10;;
29214;SDS011;16252;49.816;7.964;2022-07-03T04:24:21;2.13;;;1.10;;
29214;SDS011;16252;49.816;7.964;2022-07-03T04:26:46;1.00;;;0.80;;
29214;SDS011;16252;49.816;7.964;2022-07-03T04:29:12;1.92;;;1.08;;
29214;SDS011;16252;49.816;7.964;2022-07-03T04:31:37;2.08;;;1.10;;
29214;SDS011;16252;49.816;7.964;2022-07-03T04:34:02;1.13;;;0.90;;
29214;SDS011;16252;49.816;7.964;2022-07-03T04:36:28;1.20;;;0.90;;
29214;SDS011;16252;49.816;7.964;2022-07-03T04:38:53;6.22;;;1.10;;
29214;SDS011;16252;49.816;7.964;2022-07-03T04:41:19;1.33;;;0.90;;
29214;SDS011;16252;49.816;7.964;2022-07-03T04:43:44;1.00;;;0.90;;
29214;SDS011;16252;49.816;7.964;2022-07-03T04:46:09;0.82;;;0.82;;
29214;SDS011;16252;49.816;7.964;2022-07-03T04:48:35;1.75;;;1.17;;
29214;SDS011;16252;49.816;7.964;2022-07-03T04:51:00;1.75;;;1.10;;
29214;SDS011;16252;49.816;7.964;2022-07-03T04:53:26;2.97;;;1.10;;
29214;SDS011;16252;49.816;7.964;2022-07-03T04:55:51;1.67;;;1.00;;
29214;SDS011;16252;49.816;7.964;2022-07-03T04:58:17;1.35;;;1.00;;
29214;SDS011;16252;49.816;7.964;2022-07-03T05:00:43;0.90;;;0.82;;
29214;SDS011;16252;49.816;7.964;2022-07-03T05:03:09;2.78;;;1.08;;
29214;SDS011;16252;49.816;7.964;2022-07-03T05:05:34;2.08;;;1.10;;
29214;SDS011;16252;49.816;7.964;2022-07-03T05:08:00;1.38;;;0.90;;
29214;SDS011;16252;49.816;7.964;2022-07-03T05:10:25;1.00;;;0.90;;
29214;SDS011;16252;49.816;7.964;2022-07-03T05:12:51;2.03;;;0.95;;
29214;SDS011;16252;49.816;7.964;2022-07-03T05:15:17;1.92;;;0.93;;
29214;SDS011;16252;49.816;7.964;2022-07-03T05:17:42;1.20;;;0.90;;
29214;SDS011;16252;49.816;7.964;2022-07-03T05:20:07;1.20;;;0.90;;
29214;SDS011;16252;49.816;7.964;2022-07-03T05:23:02;1.20;;;0.90;;
29214;SDS011;16252;49.816;7.964;2022-07-03T05:25:28;2.13;;;1.15;;
29214;SDS011;16252;49.816;7.964;2022-07-03T05:27:55;4.00;;;0.88;;
29214;SDS011;16252;49.816;7.964;2022-07-03T05:30:21;1.33;;;1.02;;
29214;SDS011;16252;49.816;7.964;2022-07-03T05:32:48;1.63;;;1.15;;
29214;SDS011;16252;49.816;7.964;2022-07-03T05:35:14;1.38;;;1.17;;
29214;SDS011;16252;49.816;7.964;2022-07-03T05:37:40;1.10;;;0.93;;
29214;SDS011;16252;49.816;7.964;2022-07-03T05:40:05;1.08;;;0.98;;
29214;SDS011;16252;49.816;7.964;2022-07-03T05:42:31;1.90;;;1.10;;
29214;SDS011;16252;49.816;7.964;2022-07-03T05:44:56;4.28;;;1.20;;
29214;SDS011;16252;49.816;7.964;2022-07-03T05:47:21;2.00;;;1.30;;
29214;SDS011;16252;49.816;7.964;2022-07-03T05:49:47;1.08;;;1.00;;
29214;SDS011;16252;49.816;7.964;2022-07-03T05:52:12;1.88;;;1.10;;
29214;SDS011;16252;49.816;7.964;2022-07-03T05:54:38;1.67;;;1.38;;
29214;SDS011;16252;49.816;7.964;2022-07-03T05:57:03;2.35;;;1.70;;
29214;SDS011;16252;49.816;7.964;2022-07-03T05:59:28;3.28;;;1.38;;
29214;SDS011;16252;49.816;7.964;2022-07-03T06:01:54;3.03;;;2.22;;
29214;SDS011;16252;49.816;7.964;2022-07-03T06:04:19;1.55;;;1.45;;
29214;SDS011;16252;49.816;7.964;2022-07-03T06:06:44;1.23;;;1.13;;
29214;SDS011;16252;49.816;7.964;2022-07-03T06:09:09;1.52;;;1.10;;
29214;SDS011;16252;49.816;7.964;2022-07-03T06:11:35;1.55;;;1.20;;
29214;SDS011;16252;49.816;7.964;2022-07-03T06:14:00;1.20;;;1.10;;
29214;SDS011;16252;49.816;7.964;2022-07-03T06:16:25;0.93;;;0.68;;
29214;SDS011;16252;49.816;7.964;2022-07-03T06:18:51;0.73;;;0.70;;
29214;SDS011;16252;49.816;7.964;2022-07-03T06:21:16;1.27;;;1.08;;
29214;SDS011;16252;49.816;7.964;2022-07-03T06:23:41;1.30;;;1.17;;
29214;SDS011;16252;49.816;7.964;2022-07-03T06:26:07;1.33;;;0.82;;
29214;SDS011;16252;49.816;7.964;2022-07-03T06:28:32;1.15;;;1.02;;
29214;SDS011;16252;49.816;7.964;2022-07-03T06:30:57;2.97;;;0.90;;
29214;SDS011;16252;49.816;7.964;2022-07-03T06:33:23;0.95;;;0.80;;
29214;SDS011;16252;49.816;7.964;2022-07-03T06:35:48;1.10;;;1.00;;
29214;SDS011;16252;49.816;7.964;2022-07-03T06:38:13;1.33;;;0.90;;
29214;SDS011;16252;49.816;7.964;2022-07-03T06:40:39;1.25;;;0.88;;
29214;SDS011;16252;49.816;7.964;2022-07-03T06:43:04;0.93;;;0.90;;
29214;SDS011;16252;49.816;7.964;2022-07-03T06:45:29;4.13;;;0.95;;
29214;SDS011;16252;49.816;7.964;2022-07-03T06:47:55;1.15;;;1.05;;
29214;SDS011;16252;49.816;7.964;2022-07-03T06:50:20;1.70;;;1.00;;
29214;SDS011;16252;49.816;7.964;2022-07-03T06:52:45;1.17;;;0.90;;
29214;SDS011;16252;49.816;7.964;2022-07-03T06:55:11;0.80;;;0.77;;
29214;SDS011;16252;49.816;7.964;2022-07-03T06:57:36;1.23;;;0.88;;
29214;SDS011;16252;49.816;7.964;2022-07-03T07:00:02;0.70;;;0.70;;
29214;SDS011;16252;49.816;7.964;2022-07-03T07:02:28;0.70;;;0.70;;
29214;SDS011;16252;49.816;7.964;2022-07-03T07:04:53;2.15;;;1.10;;
29214;SDS011;16252;49.816;7.964;2022-07-03T07:07:18;0.75;;;0.70;;
29214;SDS011;16252;49.816;7.964;2022-07-03T07:09:44;1.48;;;1.00;;
29214;SDS011;16252;49.816;7.964;2022-07-03T07:12:09;1.75;;;0.90;;
29214;SDS011;16252;49.816;7.964;2022-07-03T07:14:34;1.38;;;0.98;;
29214;SDS011;16252;49.816;7.964;2022-07-03T07:17:00;0.60;;;0.60;;
29214;SDS011;16252;49.816;7.964;2022-07-03T07:19:25;1.25;;;0.80;;
29214;SDS011;16252;49.816;7.964;2022-07-03T07:21:50;0.73;;;0.73;;
29214;SDS011;16252;49.816;7.964;2022-07-03T07:24:16;0.80;;;0.70;;
29214;SDS011;16252;49.816;7.964;2022-07-03T07:26:41;0.70;;;0.70;;
29214;SDS011;16252;49.816;7.964;2022-07-03T07:29:06;0.70;;;0.55;;
29214;SDS011;16252;49.816;7.964;2022-07-03T07:31:32;0.68;;;0.52;;
29214;SDS011;16252;49.816;7.964;2022-07-03T07:33:57;0.60;;;0.60;;
29214;SDS011;16252;49.816;7.964;2022-07-03T07:36:22;0.82;;;0.52;;
29214;SDS011;16252;49.816;7.964;2022-07-03T07:38:48;0.38;;;0.38;;
29214;SDS011;16252;49.816;7.964;2022-07-03T07:41:13;1.08;;;0.60;;
29214;SDS011;16252;49.816;7.964;2022-07-03T07:43:39;0.40;;;0.40;;
29214;SDS011;16252;49.816;7.964;2022-07-03T07:46:04;1.25;;;0.60;;
29214;SDS011;16252;49.816;7.964;2022-07-03T07:48:29;0.50;;;0.50;;
29214;SDS011;16252;49.816;7.964;2022-07-03T07:50:55;0.47;;;0.43;;
29214;SDS011;16252;49.816;7.964;2022-07-03T07:53:20;1.17;;;0.90;;
29214;SDS011;16252;49.816;7.964;2022-07-03T07:55:45;0.50;;;0.40;;
29214;SDS011;16252;49.816;7.964;2022-07-03T07:58:11;0.50;;;0.50;;
29214;SDS011;16252;49.816;7.964;2022-07-03T08:00:36;0.60;;;0.50;;
29214;SDS011;16252;49.816;7.964;2022-07-03T08:03:01;0.40;;;0.40;;
29214;SDS011;16252;49.816;7.964;2022-07-03T08:05:45;1.30;;;0.73;;
29214;SDS011;16252;49.816;7.964;2022-07-03T08:08:14;0.50;;;0.50;;
29214;SDS011;16252;49.816;7.964;2022-07-03T08:10:48;0.57;;;0.57;;
29214;SDS011;16252;49.816;7.964;2022-07-03T08:13:14;0.68;;;0.45;;
29214;SDS011;16252;49.816;7.964;2022-07-03T08:15:41;0.50;;;0.30;;
29214;SDS011;16252;49.816;7.964;2022-07-03T08:18:07;0.40;;;0.40;;
29214;SDS011;16252;49.816;7.964;2022-07-03T08:20:33;0.40;;;0.40;;
29214;SDS011;16252;49.816;7.964;2022-07-03T08:23:00;0.88;;;0.50;;
29214;SDS011;16252;49.816;7.964;2022-07-03T08:25:25;0.60;;;0.40;;
29214;SDS011;16252;49.816;7.964;2022-07-03T08:27:51;0.40;;;0.25;;
29214;SDS011;16252;49.816;7.964;2022-07-03T08:30:17;0.57;;;0.50;;
29214;SDS011;16252;49.816;7.964;2022-07-03T08:32:43;0.30;;;0.30;;
29214;SDS011;16252;49.816;7.964;2022-07-03T08:35:09;0.73;;;0.30;;
29214;SDS011;16252;49.816;7.964;2022-07-03T08:37:35;0.55;;;0.30;;
29214;SDS011;16252;49.816;7.964;2022-07-03T08:40:02;0.90;;;0.35;;
29214;SDS011;16252;49.816;7.964;2022-07-03T08:42:28;1.13;;;0.47;;
29214;SDS011;16252;49.816;7.964;2022-07-03T08:44:55;0.40;;;0.40;;
29214;SDS011;16252;49.816;7.964;2022-07-03T08:47:21;0.70;;;0.30;;
29214;SDS011;16252;49.816;7.964;2022-07-03T08:49:48;0.55;;;0.40;;
29214;SDS011;16252;49.816;7.964;2022-07-03T08:52:14;0.93;;;0.43;;
29214;SDS011;16252;49.816;7.964;2022-07-03T08:54:39;0.40;;;0.40;;
29214;SDS011;16252;49.816;7.964;2022-07-03T08:57:05;0.70;;;0.40;;
29214;SDS011;16252;49.816;7.964;2022-07-03T08:59:38;0.40;;;0.40;;
29214;SDS011;16252;49.816;7.964;2022-07-03T09:02:04;0.75;;;0.40;;
29214;SDS011;16252;49.816;7.964;2022-07-03T09:04:33;1.00;;;0.28;;
29214;SDS011;16252;49.816;7.964;2022-07-03T09:06:59;0.25;;;0.25;;
29214;SDS011;16252;49.816;7.964;2022-07-03T09:09:25;0.57;;;0.40;;
29214;SDS011;16252;49.816;7.964;2022-07-03T09:11:51;1.00;;;0.63;;
29214;SDS011;16252;49.816;7.964;2022-07-03T09:14:17;0.57;;;0.40;;
29214;SDS011;16252;49.816;7.964;2022-07-03T09:16:43;0.75;;;0.40;;
29214;SDS011;16252;49.816;7.964;2022-07-03T09:19:08;1.70;;;0.40;;
29214;SDS011;16252;49.816;7.964;2022-07-03T09:21:40;0.40;;;0.30;;
29214;SDS011;16252;49.816;7.964;2022-07-03T09:24:07;0.60;;;0.40;;
29214;SDS011;16252;49.816;7.964;2022-07-03T09:26:34;0.65;;;0.45;;
29214;SDS011;16252;49.816;7.964;2022-07-03T09:29:00;0.57;;;0.43;;
29214;SDS011;16252;49.816;7.964;2022-07-03T09:31:28;0.50;;;0.40;;
29214;SDS011;16252;49.816;7.964;2022-07-03T09:33:55;0.60;;;0.40;;
29214;SDS011;16252;49.816;7.964;2022-07-03T09:36:44;0.70;;;0.70;;
29214;SDS011;16252;49.816;7.964;2022-07-03T09:39:19;0.93;;;0.40;;
29214;SDS011;16252;49.816;7.964;2022-07-03T09:42:02;0.70;;;0.50;;
29214;SDS011;16252;49.816;7.964;2022-07-03T09:44:35;0.77;;;0.40;;
29214;SDS011;16252;49.816;7.964;2022-07-03T09:47:17;0.30;;;0.30;;
29214;SDS011;16252;49.816;7.964;2022-07-03T09:49:45;1.08;;;0.30;;
29214;SDS011;16252;49.816;7.964;2022-07-03T09:52:40;0.40;;;0.40;;
29214;SDS011;16252;49.816;7.964;2022-07-03T09:57:31;0.40;;;0.40;;
29214;SDS011;16252;49.816;7.964;2022-07-03T10:00:07;0.40;;;0.40;;
29214;SDS011;16252;49.816;7.964;2022-07-03T10:02:33;0.60;;;0.52;;
29214;SDS011;16252;49.816;7.964;2022-07-03T10:05:19;0.83;;;0.50;;
29214;SDS011;16252;49.816;7.964;2022-07-03T10:10:25;1.23;;;0.50;;
29214;SDS011;16252;49.816;7.964;2022-07-03T10:12:52;0.55;;;0.40;;
29214;SDS011;16252;49.816;7.964;2022-07-03T10:15:19;0.43;;;0.40;;
29214;SDS011;16252;49.816;7.964;2022-07-03T10:17:46;0.75;;;0.43;;
29214;SDS011;16252;49.816;7.964;2022-07-03T10:20:14;1.27;;;0.40;;
29214;SDS011;16252;49.816;7.964;2022-07-03T10:22:43;0.50;;;0.50;;
29214;SDS011;16252;49.816;7.964;2022-07-03T10:25:11;0.93;;;0.47;;
29214;SDS011;16252;49.816;7.964;2022-07-03T10:27:38;0.40;;;0.30;;
29214;SDS011;16252;49.816;7.964;2022-07-03T10:30:04;1.27;;;0.50;;
29214;SDS011;16252;49.816;7.964;2022-07-03T10:32:31;0.38;;;0.30;;
29214;SDS011;16252;49.816;7.964;2022-07-03T10:34:58;0.73;;;0.30;;
29214;SDS011;16252;49.816;7.964;2022-07-03T10:37:23;1.10;;;0.50;;
29214;SDS011;16252;49.816;7.964;2022-07-03T10:39:57;1.13;;;0.45;;
29214;SDS011;16252;49.816;7.964;2022-07-03T10:42:57;0.77;;;0.45;;
29214;SDS011;16252;49.816;7.964;2022-07-03T10:51:17;0.45;;;0.38;;
29214;SDS011;16252;49.816;7.964;2022-07-03T10:53:43;0.45;;;0.30;;
29214;SDS011;16252;49.816;7.964;2022-07-03T10:56:08;0.40;;;0.38;;
29214;SDS011;16252;49.816;7.964;2022-07-03T10:58:54;0.50;;;0.40;;
29214;SDS011;16252;49.816;7.964;2022-07-03T11:01:29;2.35;;;0.40;;
29214;SDS011;16252;49.816;7.964;2022-07-03T11:03:58;0.50;;;0.50;;
29214;SDS011;16252;49.816;7.964;2022-07-03T11:07:07;0.73;;;0.35;;
29214;SDS011;16252;49.816;7.964;2022-07-03T11:09:41;0.52;;;0.30;;
29214;SDS011;16252;49.816;7.964;2022-07-03T11:12:06;0.40;;;0.30;;
29214;SDS011;16252;49.816;7.964;2022-07-03T11:14:32;0.50;;;0.40;;
29214;SDS011;16252;49.816;7.964;2022-07-03T11:17:17;0.90;;;0.30;;
29214;SDS011;16252;49.816;7.964;2022-07-03T11:19:46;2.30;;;0.45;;
29214;SDS011;16252;49.816;7.964;2022-07-03T11:22:53;0.60;;;0.50;;
29214;SDS011;16252;49.816;7.964;2022-07-03T11:28:04;0.40;;;0.30;;
29214;SDS011;16252;49.816;7.964;2022-07-03T11:30:30;0.60;;;0.30;;
29214;SDS011;16252;49.816;7.964;2022-07-03T11:32:57;0.73;;;0.47;;
29214;SDS011;16252;49.816;7.964;2022-07-03T11:38:14;0.40;;;0.32;;
29214;SDS011;16252;49.816;7.964;2022-07-03T11:40:42;0.80;;;0.47;;
29214;SDS011;16252;49.816;7.964;2022-07-03T11:43:09;0.52;;;0.40;;
29214;SDS011;16252;49.816;7.964;2022-07-03T11:45:37;0.90;;;0.50;;
29214;SDS011;16252;49.816;7.964;2022-07-03T11:48:12;0.70;;;0.50;;
29214;SDS011;16252;49.816;7.964;2022-07-03T11:50:39;0.80;;;0.43;;
29214;SDS011;16252;49.816;7.964;2022-07-03T11:53:22;0.43;;;0.30;;
29214;SDS011;16252;49.816;7.964;2022-07-03T11:55:49;0.47;;;0.43;;
29214;SDS011;16252;49.816;7.964;2022-07-03T11:58:16;1.27;;;0.50;;
29214;SDS011;16252;49.816;7.964;2022-07-03T12:00:42;0.68;;;0.47;;
29214;SDS011;16252;49.816;7.964;2022-07-03T12:03:08;1.48;;;0.55;;
29214;SDS011;16252;49.816;7.964;2022-07-03T12:05:48;0.30;;;0.30;;
29214;SDS011;16252;49.816;7.964;2022-07-03T12:08:16;0.38;;;0.32;;
29214;SDS011;16252;49.816;7.964;2022-07-03T12:10:46;2.75;;;0.50;;
29214;SDS011;16252;49.816;7.964;2022-07-03T12:13:18;0.68;;;0.32;;
29214;SDS011;16252;49.816;7.964;2022-07-03T12:15:44;0.40;;;0.30;;
29214;SDS011;16252;49.816;7.964;2022-07-03T12:18:10;0.57;;;0.40;;
29214;SDS011;16252;49.816;7.964;2022-07-03T12:20:35;1.17;;;0.43;;
29214;SDS011;16252;49.816;7.964;2022-07-03T12:23:01;0.60;;;0.40;;
29214;SDS011;16252;49.816;7.964;2022-07-03T12:25:28;0.80;;;0.43;;
29214;SDS011;16252;49.816;7.964;2022-07-03T12:27:55;0.45;;;0.45;;
29214;SDS011;16252;49.816;7.964;2022-07-03T12:30:23;0.85;;;0.50;;
29214;SDS011;16252;49.816;7.964;2022-07-03T12:32:50;0.65;;;0.30;;
29214;SDS011;16252;49.816;7.964;2022-07-03T12:35:23;0.70;;;0.47;;
29214;SDS011;16252;49.816;7.964;2022-07-03T12:37:49;1.23;;;0.40;;
29214;SDS011;16252;49.816;7.964;2022-07-03T12:40:15;0.65;;;0.52;;
29214;SDS011;16252;49.816;7.964;2022-07-03T12:42:53;2.33;;;0.60;;
29214;SDS011;16252;49.816;7.964;2022-07-03T12:45:20;0.52;;;0.40;;
29214;SDS011;16252;49.816;7.964;2022-07-03T12:47:56;1.13;;;0.50;;
29214;SDS011;16252;49.816;7.964;2022-07-03T12:50:23;0.82;;;0.30;;
29214;SDS011;16252;49.816;7.964;2022-07-03T12:52:52;1.05;;;0.35;;
29214;SDS011;16252;49.816;7.964;2022-07-03T12:55:22;0.65;;;0.40;;
29214;SDS011;16252;49.816;7.964;2022-07-03T12:57:49;0.65;;;0.40;;
29214;SDS011;16252;49.816;7.964;2022-07-03T13:00:41;0.65;;;0.35;;
29214;SDS011;16252;49.816;7.964;2022-07-03T13:03:08;0.98;;;0.57;;
29214;SDS011;16252;49.816;7.964;2022-07-03T13:05:40;0.63;;;0.50;;
29214;SDS011;16252;49.816;7.964;2022-07-03T13:08:07;0.73;;;0.52;;
29214;SDS011;16252;49.816;7.964;2022-07-03T13:10:32;0.70;;;0.40;;
29214;SDS011;16252;49.816;7.964;2022-07-03T13:12:57;0.70;;;0.60;;
29214;SDS011;16252;49.816;7.964;2022-07-03T13:15:24;1.98;;;0.65;;
29214;SDS011;16252;49.816;7.964;2022-07-03T13:17:55;1.10;;;0.40;;
29214;SDS011;16252;49.816;7.964;2022-07-03T13:20:21;0.57;;;0.43;;
29214;SDS011;16252;49.816;7.964;2022-07-03T13:22:48;0.38;;;0.30;;
29214;SDS011;16252;49.816;7.964;2022-07-03T13:25:14;0.40;;;0.40;;
29214;SDS011;16252;49.816;7.964;2022-07-03T13:27:39;0.40;;;0.40;;
29214;SDS011;16252;49.816;7.964;2022-07-03T13:30:05;1.13;;;0.40;;
29214;SDS011;16252;49.816;7.964;2022-07-03T13:32:31;0.60;;;0.60;;
29214;SDS011;16252;49.816;7.964;2022-07-03T13:34:56;0.30;;;0.30;;
29214;SDS011;16252;49.816;7.964;2022-07-03T13:37:21;2.83;;;1.02;;
29214;SDS011;16252;49.816;7.964;2022-07-03T13:39:46;0.77;;;0.45;;
29214;SDS011;16252;49.816;7.964;2022-07-03T13:42:12;4.45;;;0.60;;
29214;SDS011;16252;49.816;7.964;2022-07-03T13:44:37;0.70;;;0.40;;
29214;SDS011;16252;49.816;7.964;2022-07-03T13:47:03;1.23;;;0.73;;
29214;SDS011;16252;49.816;7.964;2022-07-03T13:49:30;1.00;;;0.60;;
29214;SDS011;16252;49.816;7.964;2022-07-03T13:51:59;1.80;;;0.40;;
29214;SDS011;16252;49.816;7.964;2022-07-03T13:54:24;0.90;;;0.50;;
29214;SDS011;16252;49.816;7.964;2022-07-03T13:56:49;0.38;;;0.38;;
29214;SDS011;16252;49.816;7.964;2022-07-03T13:59:15;0.68;;;0.52;;
29214;SDS011;16252;49.816;7.964;2022-07-03T14:01:41;1.02;;;0.60;;
29214;SDS011;16252;49.816;7.964;2022-07-03T14:04:07;1.02;;;0.85;;
29214;SDS011;16252;49.816;7.964;2022-07-03T14:06:33;0.93;;;0.60;;
29214;SDS011;16252;49.816;7.964;2022-07-03T14:08:59;0.77;;;0.60;;
29214;SDS011;16252;49.816;7.964;2022-07-03T14:11:24;0.50;;;0.45;;
29214;SDS011;16252;49.816;7.964;2022-07-03T14:13:50;0.40;;;0.40;;
29214;SDS011;16252;49.816;7.964;2022-07-03T14:16:15;0.60;;;0.60;;
29214;SDS011;16252;49.816;7.964;2022-07-03T14:18:40;0.80;;;0.43;;
29214;SDS011;16252;49.816;7.964;2022-07-03T14:21:06;1.38;;;0.70;;
29214;SDS011;16252;49.816;7.964;2022-07-03T14:23:31;0.65;;;0.45;;
29214;SDS011;16252;49.816;7.964;2022-07-03T14:25:57;0.63;;;0.60;;
29214;SDS011;16252;49.816;7.964;2022-07-03T14:28:23;1.17;;;0.38;;
29214;SDS011;16252;49.816;7.964;2022-07-03T14:31:07;0.77;;;0.60;;
29214;SDS011;16252;49.816;7.964;2022-07-03T14:33:44;0.77;;;0.50;;
29214;SDS011;16252;49.816;7.964;2022-07-03T14:36:09;1.48;;;0.40;;
29214;SDS011;16252;49.816;7.964;2022-07-03T14:38:35;0.57;;;0.40;;
29214;SDS011;16252;49.816;7.964;2022-07-03T14:41:00;0.90;;;0.40;;
29214;SDS011;16252;49.816;7.964;2022-07-03T14:43:25;1.17;;;0.47;;
29214;SDS011;16252;49.816;7.964;2022-07-03T14:45:51;0.57;;;0.50;;
29214;SDS011;16252;49.816;7.964;2022-07-03T14:48:16;0.55;;;0.40;;
29214;SDS011;16252;49.816;7.964;2022-07-03T14:50:41;0.45;;;0.35;;
29214;SDS011;16252;49.816;7.964;2022-07-03T14:53:07;0.50;;;0.47;;
29214;SDS011;16252;49.816;7.964;2022-07-03T14:55:36;0.35;;;0.30;;
29214;SDS011;16252;49.816;7.964;2022-07-03T15:05:32;0.80;;;0.55;;
29214;SDS011;16252;49.816;7.964;2022-07-03T15:10:33;0.45;;;0.40;;
29214;SDS011;16252;49.816;7.964;2022-07-03T15:13:00;0.70;;;0.50;;
29214;SDS011;16252;49.816;7.964;2022-07-03T15:15:27;0.28;;;0.28;;
29214;SDS011;16252;49.816;7.964;2022-07-03T15:17:54;0.55;;;0.47;;
29214;SDS011;16252;49.816;7.964;2022-07-03T15:20:22;1.02;;;0.57;;
29214;SDS011;16252;49.816;7.964;2022-07-03T15:22:48;0.50;;;0.35;;
29214;SDS011;16252;49.816;7.964;2022-07-03T15:25:16;0.30;;;0.30;;
29214;SDS011;16252;49.816;7.964;2022-07-03T15:27:44;1.30;;;0.38;;
29214;SDS011;16252;49.816;7.964;2022-07-03T15:30:11;0.30;;;0.30;;
29214;SDS011;16252;49.816;7.964;2022-07-03T15:32:37;1.10;;;0.80;;
29214;SDS011;16252;49.816;7.964;2022-07-03T15:35:03;1.30;;;0.65;;
29214;SDS011;16252;49.816;7.964;2022-07-03T15:40:46;0.98;;;0.50;;
29214;SDS011;16252;49.816;7.964;2022-07-03T15:43:27;0.63;;;0.43;;
29214;SDS011;16252;49.816;7.964;2022-07-03T15:46:19;0.70;;;0.40;;
29214;SDS011;16252;49.816;7.964;2022-07-03T15:54:23;0.77;;;0.50;;
29214;SDS011;16252;49.816;7.964;2022-07-03T15:56:55;0.32;;;0.30;;